sensor_id;sensor_type;location;lat;lon;timestamp;P1;durP1;ratioP1;P2;durP2;ratioP2
18172;SDS011;9211;48.818;9.312;2022-12-18T00:00:48;98.80;;;39.53;;
18172;SDS011;9211;48.818;9.312;2022-12-18T00:03:15;98.28;;;39.33;;
18172;SDS011;9211;48.818;9.312;2022-12-18T00:05:50;96.18;;;38.47;;
18172;SDS011;9211;48.818;9.312;2022-12-18T00:08:18;93.25;;;38.35;;
18172;SDS011;9211;48.818;9.312;2022-12-18T00:10:45;100.45;;;38.63;;
18172;SDS011;9211;48.818;9.312;2022-12-18T00:13:13;98.75;;;39.33;;
18172;SDS011;9211;48.818;9.312;2022-12-18T00:15:40;101.72;;;38.80;;
18172;SDS011;9211;48.818;9.312;2022-12-18T00:18:07;96.95;;;38.55;;
18172;SDS011;9211;48.818;9.312;2022-12-18T00:20:35;95.50;;;38.13;;
18172;SDS011;9211;48.818;9.312;2022-12-18T00:23:04;100.90;;;39.20;;
18172;SDS011;9211;48.818;9.312;2022-12-18T00:25:32;93.82;;;37.58;;
18172;SDS011;9211;48.818;9.312;2022-12-18T00:28:00;96.25;;;37.95;;
18172;SDS011;9211;48.818;9.312;2022-12-18T00:30:27;92.75;;;38.35;;
18172;SDS011;9211;48.818;9.312;2022-12-18T00:32:54;98.82;;;37.28;;
18172;SDS011;9211;48.818;9.312;2022-12-18T00:35:24;88.30;;;37.43;;
18172;SDS011;9211;48.818;9.312;2022-12-18T00:37:51;92.10;;;37.85;;
18172;SDS011;9211;48.818;9.312;2022-12-18T00:40:20;92.68;;;37.45;;
18172;SDS011;9211;48.818;9.312;2022-12-18T00:42:47;90.28;;;36.83;;
18172;SDS011;9211;48.818;9.312;2022-12-18T00:45:25;87.07;;;37.53;;
18172;SDS011;9211;48.818;9.312;2022-12-18T00:47:54;91.70;;;36.53;;
18172;SDS011;9211;48.818;9.312;2022-12-18T00:50:24;95.18;;;37.28;;
18172;SDS011;9211;48.818;9.312;2022-12-18T00:52:51;89.80;;;36.35;;
18172;SDS011;9211;48.818;9.312;2022-12-18T00:55:20;100.55;;;37.83;;
18172;SDS011;9211;48.818;9.312;2022-12-18T00:57:47;87.63;;;37.53;;
18172;SDS011;9211;48.818;9.312;2022-12-18T01:00:14;88.85;;;36.70;;
18172;SDS011;9211;48.818;9.312;2022-12-18T01:02:41;87.97;;;36.67;;
18172;SDS011;9211;48.818;9.312;2022-12-18T01:05:09;88.37;;;35.50;;
18172;SDS011;9211;48.818;9.312;2022-12-18T01:07:37;81.45;;;34.40;;
18172;SDS011;9211;48.818;9.312;2022-12-18T01:10:05;90.38;;;34.65;;
18172;SDS011;9211;48.818;9.312;2022-12-18T01:12:35;88.88;;;34.58;;
18172;SDS011;9211;48.818;9.312;2022-12-18T01:15:02;89.57;;;35.10;;
18172;SDS011;9211;48.818;9.312;2022-12-18T01:20:39;90.68;;;35.55;;
18172;SDS011;9211;48.818;9.312;2022-12-18T01:23:05;83.07;;;34.40;;
18172;SDS011;9211;48.818;9.312;2022-12-18T01:25:32;85.68;;;35.30;;
18172;SDS011;9211;48.818;9.312;2022-12-18T01:28:03;83.78;;;34.63;;
18172;SDS011;9211;48.818;9.312;2022-12-18T01:30:31;88.47;;;35.45;;
18172;SDS011;9211;48.818;9.312;2022-12-18T01:32:58;82.32;;;33.20;;
18172;SDS011;9211;48.818;9.312;2022-12-18T01:35:25;80.50;;;33.80;;
18172;SDS011;9211;48.818;9.312;2022-12-18T01:37:53;88.10;;;35.97;;
18172;SDS011;9211;48.818;9.312;2022-12-18T01:40:21;82.63;;;34.88;;
18172;SDS011;9211;48.818;9.312;2022-12-18T01:42:50;84.07;;;35.35;;
18172;SDS011;9211;48.818;9.312;2022-12-18T01:45:26;88.75;;;34.78;;
18172;SDS011;9211;48.818;9.312;2022-12-18T01:47:55;93.90;;;35.22;;
18172;SDS011;9211;48.818;9.312;2022-12-18T01:50:25;85.38;;;34.28;;
18172;SDS011;9211;48.818;9.312;2022-12-18T01:52:58;90.38;;;35.45;;
18172;SDS011;9211;48.818;9.312;2022-12-18T01:55:29;86.63;;;34.53;;
18172;SDS011;9211;48.818;9.312;2022-12-18T01:57:59;86.28;;;34.25;;
18172;SDS011;9211;48.818;9.312;2022-12-18T02:00:28;85.07;;;35.10;;
18172;SDS011;9211;48.818;9.312;2022-12-18T02:02:56;91.13;;;34.72;;
18172;SDS011;9211;48.818;9.312;2022-12-18T02:05:27;85.40;;;34.08;;
18172;SDS011;9211;48.818;9.312;2022-12-18T02:08:03;88.13;;;33.40;;
18172;SDS011;9211;48.818;9.312;2022-12-18T02:10:38;84.38;;;32.92;;
18172;SDS011;9211;48.818;9.312;2022-12-18T02:13:12;85.07;;;33.88;;
18172;SDS011;9211;48.818;9.312;2022-12-18T02:15:46;84.53;;;34.38;;
18172;SDS011;9211;48.818;9.312;2022-12-18T02:18:22;87.10;;;33.92;;
18172;SDS011;9211;48.818;9.312;2022-12-18T02:20:54;88.97;;;35.38;;
18172;SDS011;9211;48.818;9.312;2022-12-18T02:23:33;84.05;;;33.90;;
18172;SDS011;9211;48.818;9.312;2022-12-18T02:26:19;81.87;;;33.67;;
18172;SDS011;9211;48.818;9.312;2022-12-18T02:28:51;94.78;;;36.05;;
18172;SDS011;9211;48.818;9.312;2022-12-18T02:31:25;83.80;;;33.47;;
18172;SDS011;9211;48.818;9.312;2022-12-18T02:33:58;90.85;;;35.13;;
18172;SDS011;9211;48.818;9.312;2022-12-18T02:36:32;90.15;;;36.72;;
18172;SDS011;9211;48.818;9.312;2022-12-18T02:39:00;95.40;;;37.40;;
18172;SDS011;9211;48.818;9.312;2022-12-18T02:41:31;89.93;;;35.40;;
18172;SDS011;9211;48.818;9.312;2022-12-18T02:44:06;96.00;;;36.70;;
18172;SDS011;9211;48.818;9.312;2022-12-18T02:46:35;92.10;;;36.67;;
18172;SDS011;9211;48.818;9.312;2022-12-18T02:49:12;83.53;;;34.67;;
18172;SDS011;9211;48.818;9.312;2022-12-18T02:51:48;90.72;;;36.22;;
18172;SDS011;9211;48.818;9.312;2022-12-18T02:57:11;92.80;;;37.75;;
18172;SDS011;9211;48.818;9.312;2022-12-18T02:59:46;94.35;;;37.55;;
18172;SDS011;9211;48.818;9.312;2022-12-18T03:02:21;88.85;;;35.97;;
18172;SDS011;9211;48.818;9.312;2022-12-18T03:04:54;91.20;;;37.33;;
18172;SDS011;9211;48.818;9.312;2022-12-18T03:07:30;96.55;;;37.67;;
18172;SDS011;9211;48.818;9.312;2022-12-18T03:10:07;92.88;;;37.60;;
18172;SDS011;9211;48.818;9.312;2022-12-18T03:12:40;92.15;;;37.72;;
18172;SDS011;9211;48.818;9.312;2022-12-18T03:15:12;88.78;;;37.00;;
18172;SDS011;9211;48.818;9.312;2022-12-18T03:17:48;96.35;;;36.53;;
18172;SDS011;9211;48.818;9.312;2022-12-18T03:20:19;90.63;;;36.30;;
18172;SDS011;9211;48.818;9.312;2022-12-18T03:22:49;93.85;;;37.08;;
18172;SDS011;9211;48.818;9.312;2022-12-18T03:25:19;88.10;;;36.47;;
18172;SDS011;9211;48.818;9.312;2022-12-18T03:27:54;89.55;;;37.55;;
18172;SDS011;9211;48.818;9.312;2022-12-18T03:30:24;90.22;;;35.88;;
18172;SDS011;9211;48.818;9.312;2022-12-18T03:32:56;95.85;;;38.45;;
18172;SDS011;9211;48.818;9.312;2022-12-18T03:35:29;91.65;;;37.22;;
18172;SDS011;9211;48.818;9.312;2022-12-18T03:38:00;94.55;;;37.20;;
18172;SDS011;9211;48.818;9.312;2022-12-18T03:40:29;94.20;;;37.03;;
18172;SDS011;9211;48.818;9.312;2022-12-18T03:43:04;90.97;;;38.60;;
18172;SDS011;9211;48.818;9.312;2022-12-18T03:45:39;101.63;;;38.97;;
18172;SDS011;9211;48.818;9.312;2022-12-18T03:48:14;94.47;;;37.92;;
18172;SDS011;9211;48.818;9.312;2022-12-18T03:50:48;95.03;;;38.85;;
18172;SDS011;9211;48.818;9.312;2022-12-18T03:53:24;94.47;;;38.60;;
18172;SDS011;9211;48.818;9.312;2022-12-18T03:55:59;90.00;;;36.75;;
18172;SDS011;9211;48.818;9.312;2022-12-18T03:58:34;85.38;;;35.63;;
18172;SDS011;9211;48.818;9.312;2022-12-18T04:01:14;92.57;;;37.63;;
18172;SDS011;9211;48.818;9.312;2022-12-18T04:03:43;89.47;;;36.03;;
18172;SDS011;9211;48.818;9.312;2022-12-18T04:06:12;89.38;;;35.50;;
18172;SDS011;9211;48.818;9.312;2022-12-18T04:08:42;101.95;;;36.33;;
18172;SDS011;9211;48.818;9.312;2022-12-18T04:11:13;95.72;;;37.78;;
18172;SDS011;9211;48.818;9.312;2022-12-18T04:13:43;90.10;;;36.50;;
18172;SDS011;9211;48.818;9.312;2022-12-18T04:16:18;94.27;;;37.20;;
18172;SDS011;9211;48.818;9.312;2022-12-18T04:18:48;90.03;;;35.78;;
18172;SDS011;9211;48.818;9.312;2022-12-18T04:21:15;93.60;;;36.13;;
18172;SDS011;9211;48.818;9.312;2022-12-18T04:23:43;89.07;;;36.55;;
18172;SDS011;9211;48.818;9.312;2022-12-18T04:26:11;91.25;;;35.38;;
18172;SDS011;9211;48.818;9.312;2022-12-18T04:28:50;84.07;;;34.85;;
18172;SDS011;9211;48.818;9.312;2022-12-18T04:31:17;90.30;;;36.00;;
18172;SDS011;9211;48.818;9.312;2022-12-18T04:33:44;85.00;;;34.60;;
18172;SDS011;9211;48.818;9.312;2022-12-18T04:36:12;91.75;;;36.42;;
18172;SDS011;9211;48.818;9.312;2022-12-18T04:38:40;82.97;;;34.75;;
18172;SDS011;9211;48.818;9.312;2022-12-18T04:41:11;92.35;;;35.38;;
18172;SDS011;9211;48.818;9.312;2022-12-18T04:43:40;81.32;;;33.80;;
18172;SDS011;9211;48.818;9.312;2022-12-18T04:46:08;89.43;;;35.30;;
18172;SDS011;9211;48.818;9.312;2022-12-18T04:48:35;85.13;;;34.22;;
18172;SDS011;9211;48.818;9.312;2022-12-18T04:51:03;85.18;;;33.42;;
18172;SDS011;9211;48.818;9.312;2022-12-18T04:53:31;82.60;;;33.93;;
18172;SDS011;9211;48.818;9.312;2022-12-18T04:56:04;85.43;;;34.38;;
18172;SDS011;9211;48.818;9.312;2022-12-18T04:58:34;85.37;;;33.93;;
18172;SDS011;9211;48.818;9.312;2022-12-18T05:01:01;83.57;;;34.85;;
18172;SDS011;9211;48.818;9.312;2022-12-18T05:03:29;80.32;;;33.80;;
18172;SDS011;9211;48.818;9.312;2022-12-18T05:05:56;88.15;;;34.80;;
18172;SDS011;9211;48.818;9.312;2022-12-18T05:08:23;84.40;;;33.90;;
18172;SDS011;9211;48.818;9.312;2022-12-18T05:10:57;83.73;;;33.07;;
18172;SDS011;9211;48.818;9.312;2022-12-18T05:13:25;78.85;;;32.75;;
18172;SDS011;9211;48.818;9.312;2022-12-18T05:15:52;80.60;;;32.30;;
18172;SDS011;9211;48.818;9.312;2022-12-18T05:18:19;76.05;;;30.85;;
18172;SDS011;9211;48.818;9.312;2022-12-18T05:20:48;73.13;;;30.38;;
18172;SDS011;9211;48.818;9.312;2022-12-18T05:23:16;77.13;;;31.20;;
18172;SDS011;9211;48.818;9.312;2022-12-18T05:25:46;73.53;;;30.38;;
18172;SDS011;9211;48.818;9.312;2022-12-18T05:28:13;76.20;;;30.13;;
18172;SDS011;9211;48.818;9.312;2022-12-18T05:30:40;73.97;;;30.13;;
18172;SDS011;9211;48.818;9.312;2022-12-18T05:33:09;74.20;;;30.73;;
18172;SDS011;9211;48.818;9.312;2022-12-18T05:35:36;73.38;;;31.13;;
18172;SDS011;9211;48.818;9.312;2022-12-18T05:38:04;78.30;;;31.58;;
18172;SDS011;9211;48.818;9.312;2022-12-18T05:40:31;78.22;;;30.70;;
18172;SDS011;9211;48.818;9.312;2022-12-18T05:42:58;72.60;;;31.10;;
18172;SDS011;9211;48.818;9.312;2022-12-18T05:45:25;76.28;;;30.92;;
18172;SDS011;9211;48.818;9.312;2022-12-18T05:47:52;80.18;;;31.35;;
18172;SDS011;9211;48.818;9.312;2022-12-18T05:50:19;75.22;;;30.63;;
18172;SDS011;9211;48.818;9.312;2022-12-18T05:52:46;79.25;;;30.92;;
18172;SDS011;9211;48.818;9.312;2022-12-18T05:55:14;71.55;;;29.52;;
18172;SDS011;9211;48.818;9.312;2022-12-18T05:57:41;70.30;;;29.35;;
18172;SDS011;9211;48.818;9.312;2022-12-18T06:00:09;73.83;;;28.23;;
18172;SDS011;9211;48.818;9.312;2022-12-18T06:02:39;74.45;;;28.38;;
18172;SDS011;9211;48.818;9.312;2022-12-18T06:05:07;72.50;;;27.35;;
18172;SDS011;9211;48.818;9.312;2022-12-18T06:07:34;73.65;;;27.98;;
18172;SDS011;9211;48.818;9.312;2022-12-18T06:10:01;71.43;;;27.83;;
18172;SDS011;9211;48.818;9.312;2022-12-18T06:12:29;75.32;;;28.88;;
18172;SDS011;9211;48.818;9.312;2022-12-18T06:14:56;67.88;;;28.17;;
18172;SDS011;9211;48.818;9.312;2022-12-18T06:17:23;74.35;;;28.33;;
18172;SDS011;9211;48.818;9.312;2022-12-18T06:19:54;75.68;;;29.40;;
18172;SDS011;9211;48.818;9.312;2022-12-18T06:22:21;75.15;;;29.63;;
18172;SDS011;9211;48.818;9.312;2022-12-18T06:24:48;80.20;;;31.73;;
18172;SDS011;9211;48.818;9.312;2022-12-18T06:27:15;76.30;;;31.08;;
18172;SDS011;9211;48.818;9.312;2022-12-18T06:29:43;73.15;;;28.17;;
18172;SDS011;9211;48.818;9.312;2022-12-18T06:32:10;74.18;;;29.45;;
18172;SDS011;9211;48.818;9.312;2022-12-18T06:34:37;73.73;;;29.40;;
18172;SDS011;9211;48.818;9.312;2022-12-18T06:37:04;74.32;;;29.35;;
18172;SDS011;9211;48.818;9.312;2022-12-18T06:39:31;71.78;;;28.63;;
18172;SDS011;9211;48.818;9.312;2022-12-18T06:41:58;74.15;;;28.63;;
18172;SDS011;9211;48.818;9.312;2022-12-18T06:44:26;65.30;;;28.00;;
18172;SDS011;9211;48.818;9.312;2022-12-18T06:46:54;69.18;;;27.25;;
18172;SDS011;9211;48.818;9.312;2022-12-18T06:49:21;71.10;;;26.83;;
18172;SDS011;9211;48.818;9.312;2022-12-18T06:51:48;67.45;;;27.05;;
18172;SDS011;9211;48.818;9.312;2022-12-18T06:54:15;66.40;;;26.50;;
18172;SDS011;9211;48.818;9.312;2022-12-18T06:56:44;68.20;;;27.00;;
18172;SDS011;9211;48.818;9.312;2022-12-18T06:59:12;68.93;;;26.77;;
18172;SDS011;9211;48.818;9.312;2022-12-18T07:01:39;67.45;;;26.67;;
18172;SDS011;9211;48.818;9.312;2022-12-18T07:04:08;73.78;;;27.33;;
18172;SDS011;9211;48.818;9.312;2022-12-18T07:06:34;71.30;;;28.73;;
18172;SDS011;9211;48.818;9.312;2022-12-18T07:09:02;83.30;;;30.58;;
18172;SDS011;9211;48.818;9.312;2022-12-18T07:11:29;75.20;;;28.92;;
18172;SDS011;9211;48.818;9.312;2022-12-18T07:13:58;72.72;;;28.75;;
18172;SDS011;9211;48.818;9.312;2022-12-18T07:16:25;80.32;;;29.63;;
18172;SDS011;9211;48.818;9.312;2022-12-18T07:18:53;68.72;;;27.45;;
18172;SDS011;9211;48.818;9.312;2022-12-18T07:21:23;76.32;;;28.48;;
18172;SDS011;9211;48.818;9.312;2022-12-18T07:23:51;69.30;;;27.15;;
18172;SDS011;9211;48.818;9.312;2022-12-18T07:26:19;75.33;;;28.40;;
18172;SDS011;9211;48.818;9.312;2022-12-18T07:28:47;71.80;;;26.40;;
18172;SDS011;9211;48.818;9.312;2022-12-18T07:31:15;68.55;;;27.73;;
18172;SDS011;9211;48.818;9.312;2022-12-18T07:33:43;69.90;;;28.23;;
18172;SDS011;9211;48.818;9.312;2022-12-18T07:36:11;74.50;;;28.45;;
18172;SDS011;9211;48.818;9.312;2022-12-18T07:38:39;72.00;;;26.85;;
18172;SDS011;9211;48.818;9.312;2022-12-18T07:41:07;70.90;;;24.73;;
18172;SDS011;9211;48.818;9.312;2022-12-18T07:43:36;69.22;;;25.65;;
18172;SDS011;9211;48.818;9.312;2022-12-18T07:46:03;73.40;;;25.10;;
18172;SDS011;9211;48.818;9.312;2022-12-18T07:48:31;65.93;;;24.75;;
18172;SDS011;9211;48.818;9.312;2022-12-18T07:50:58;67.63;;;24.15;;
18172;SDS011;9211;48.818;9.312;2022-12-18T07:53:25;62.63;;;24.42;;
18172;SDS011;9211;48.818;9.312;2022-12-18T07:55:55;66.45;;;25.30;;
18172;SDS011;9211;48.818;9.312;2022-12-18T07:58:23;74.05;;;26.63;;
18172;SDS011;9211;48.818;9.312;2022-12-18T08:00:50;71.35;;;26.33;;
18172;SDS011;9211;48.818;9.312;2022-12-18T08:03:18;63.17;;;25.00;;
18172;SDS011;9211;48.818;9.312;2022-12-18T08:05:45;67.65;;;26.23;;
18172;SDS011;9211;48.818;9.312;2022-12-18T08:08:15;68.70;;;25.52;;
18172;SDS011;9211;48.818;9.312;2022-12-18T08:10:42;64.23;;;25.70;;
18172;SDS011;9211;48.818;9.312;2022-12-18T08:13:11;72.05;;;27.15;;
18172;SDS011;9211;48.818;9.312;2022-12-18T08:15:37;65.30;;;25.70;;
18172;SDS011;9211;48.818;9.312;2022-12-18T08:18:04;71.90;;;27.45;;
18172;SDS011;9211;48.818;9.312;2022-12-18T08:20:31;71.63;;;26.60;;
18172;SDS011;9211;48.818;9.312;2022-12-18T08:22:58;66.20;;;26.73;;
18172;SDS011;9211;48.818;9.312;2022-12-18T08:25:25;68.63;;;27.40;;
18172;SDS011;9211;48.818;9.312;2022-12-18T08:27:52;72.35;;;28.50;;
18172;SDS011;9211;48.818;9.312;2022-12-18T08:30:23;68.13;;;28.00;;
18172;SDS011;9211;48.818;9.312;2022-12-18T08:32:50;69.45;;;27.30;;
18172;SDS011;9211;48.818;9.312;2022-12-18T08:35:18;73.68;;;28.73;;
18172;SDS011;9211;48.818;9.312;2022-12-18T08:37:45;69.53;;;27.70;;
18172;SDS011;9211;48.818;9.312;2022-12-18T08:40:12;70.57;;;27.40;;
18172;SDS011;9211;48.818;9.312;2022-12-18T08:42:39;68.82;;;27.90;;
18172;SDS011;9211;48.818;9.312;2022-12-18T08:45:24;72.50;;;28.30;;
18172;SDS011;9211;48.818;9.312;2022-12-18T08:47:51;72.68;;;27.77;;
18172;SDS011;9211;48.818;9.312;2022-12-18T08:50:18;72.65;;;26.90;;
18172;SDS011;9211;48.818;9.312;2022-12-18T08:52:46;68.25;;;28.15;;
18172;SDS011;9211;48.818;9.312;2022-12-18T08:55:13;73.10;;;28.65;;
18172;SDS011;9211;48.818;9.312;2022-12-18T08:57:40;69.03;;;27.95;;
18172;SDS011;9211;48.818;9.312;2022-12-18T09:00:07;68.57;;;28.17;;
18172;SDS011;9211;48.818;9.312;2022-12-18T09:02:36;71.93;;;28.23;;
18172;SDS011;9211;48.818;9.312;2022-12-18T09:05:04;67.75;;;27.40;;
18172;SDS011;9211;48.818;9.312;2022-12-18T09:07:31;70.07;;;27.65;;
18172;SDS011;9211;48.818;9.312;2022-12-18T09:09:58;71.07;;;27.63;;
18172;SDS011;9211;48.818;9.312;2022-12-18T09:12:25;69.73;;;28.67;;
18172;SDS011;9211;48.818;9.312;2022-12-18T09:14:52;69.95;;;29.40;;
18172;SDS011;9211;48.818;9.312;2022-12-18T09:17:19;69.47;;;27.92;;
18172;SDS011;9211;48.818;9.312;2022-12-18T09:19:48;70.07;;;27.40;;
18172;SDS011;9211;48.818;9.312;2022-12-18T09:22:15;73.60;;;29.13;;
18172;SDS011;9211;48.818;9.312;2022-12-18T09:24:42;71.30;;;28.63;;
18172;SDS011;9211;48.818;9.312;2022-12-18T09:27:09;69.03;;;28.23;;
18172;SDS011;9211;48.818;9.312;2022-12-18T09:29:36;71.35;;;28.75;;
18172;SDS011;9211;48.818;9.312;2022-12-18T09:32:03;70.05;;;29.60;;
18172;SDS011;9211;48.818;9.312;2022-12-18T09:34:30;79.50;;;30.70;;
18172;SDS011;9211;48.818;9.312;2022-12-18T09:36:59;71.97;;;29.90;;
18172;SDS011;9211;48.818;9.312;2022-12-18T09:39:26;75.75;;;31.10;;
18172;SDS011;9211;48.818;9.312;2022-12-18T09:41:53;75.30;;;30.30;;
18172;SDS011;9211;48.818;9.312;2022-12-18T09:44:24;72.70;;;30.13;;
18172;SDS011;9211;48.818;9.312;2022-12-18T09:49:43;73.85;;;29.92;;
18172;SDS011;9211;48.818;9.312;2022-12-18T09:52:14;72.78;;;29.77;;
18172;SDS011;9211;48.818;9.312;2022-12-18T09:54:46;70.63;;;29.77;;
18172;SDS011;9211;48.818;9.312;2022-12-18T09:57:17;68.73;;;28.83;;
18172;SDS011;9211;48.818;9.312;2022-12-18T10:02:50;64.35;;;27.73;;
18172;SDS011;9211;48.818;9.312;2022-12-18T10:05:20;68.60;;;27.58;;
18172;SDS011;9211;48.818;9.312;2022-12-18T10:08:01;70.65;;;28.50;;
18172;SDS011;9211;48.818;9.312;2022-12-18T10:10:33;71.18;;;27.40;;
18172;SDS011;9211;48.818;9.312;2022-12-18T10:13:09;69.13;;;27.42;;
18172;SDS011;9211;48.818;9.312;2022-12-18T10:15:47;68.07;;;26.48;;
18172;SDS011;9211;48.818;9.312;2022-12-18T10:18:27;66.87;;;26.33;;
18172;SDS011;9211;48.818;9.312;2022-12-18T10:21:04;68.20;;;26.75;;
18172;SDS011;9211;48.818;9.312;2022-12-18T10:23:39;61.60;;;25.63;;
18172;SDS011;9211;48.818;9.312;2022-12-18T10:26:17;65.63;;;27.23;;
18172;SDS011;9211;48.818;9.312;2022-12-18T10:28:44;69.77;;;27.80;;
18172;SDS011;9211;48.818;9.312;2022-12-18T10:31:12;62.17;;;25.97;;
18172;SDS011;9211;48.818;9.312;2022-12-18T10:33:42;64.05;;;25.27;;
18172;SDS011;9211;48.818;9.312;2022-12-18T10:36:09;60.35;;;24.30;;
18172;SDS011;9211;48.818;9.312;2022-12-18T10:38:36;63.57;;;24.67;;
18172;SDS011;9211;48.818;9.312;2022-12-18T10:41:06;59.90;;;24.10;;
18172;SDS011;9211;48.818;9.312;2022-12-18T10:43:52;59.00;;;24.30;;
18172;SDS011;9211;48.818;9.312;2022-12-18T10:46:37;63.30;;;24.98;;
18172;SDS011;9211;48.818;9.312;2022-12-18T10:49:05;59.10;;;24.15;;
18172;SDS011;9211;48.818;9.312;2022-12-18T10:51:44;62.53;;;24.75;;
18172;SDS011;9211;48.818;9.312;2022-12-18T10:54:14;62.30;;;24.55;;
18172;SDS011;9211;48.818;9.312;2022-12-18T10:56:43;59.90;;;24.38;;
18172;SDS011;9211;48.818;9.312;2022-12-18T10:59:11;63.47;;;24.93;;
18172;SDS011;9211;48.818;9.312;2022-12-18T11:01:47;65.22;;;25.20;;
18172;SDS011;9211;48.818;9.312;2022-12-18T11:04:16;62.00;;;24.23;;
18172;SDS011;9211;48.818;9.312;2022-12-18T11:06:53;61.30;;;24.33;;
18172;SDS011;9211;48.818;9.312;2022-12-18T11:09:24;56.78;;;23.52;;
18172;SDS011;9211;48.818;9.312;2022-12-18T11:11:52;54.57;;;22.83;;
18172;SDS011;9211;48.818;9.312;2022-12-18T11:14:22;59.78;;;24.27;;
18172;SDS011;9211;48.818;9.312;2022-12-18T11:16:51;60.08;;;23.80;;
18172;SDS011;9211;48.818;9.312;2022-12-18T11:19:20;55.35;;;22.83;;
18172;SDS011;9211;48.818;9.312;2022-12-18T11:21:52;52.85;;;22.60;;
18172;SDS011;9211;48.818;9.312;2022-12-18T11:24:20;55.65;;;22.92;;
18172;SDS011;9211;48.818;9.312;2022-12-18T11:26:53;58.00;;;23.67;;
18172;SDS011;9211;48.818;9.312;2022-12-18T11:29:22;55.78;;;22.65;;
18172;SDS011;9211;48.818;9.312;2022-12-18T11:31:56;56.45;;;23.10;;
18172;SDS011;9211;48.818;9.312;2022-12-18T11:34:55;54.47;;;22.65;;
18172;SDS011;9211;48.818;9.312;2022-12-18T11:37:27;54.97;;;23.17;;
18172;SDS011;9211;48.818;9.312;2022-12-18T11:39:57;60.05;;;22.92;;
18172;SDS011;9211;48.818;9.312;2022-12-18T11:42:32;53.27;;;22.10;;
18172;SDS011;9211;48.818;9.312;2022-12-18T11:45:08;60.25;;;23.65;;
18172;SDS011;9211;48.818;9.312;2022-12-18T11:47:49;53.97;;;22.55;;
18172;SDS011;9211;48.818;9.312;2022-12-18T11:50:23;56.83;;;23.05;;
18172;SDS011;9211;48.818;9.312;2022-12-18T11:52:52;56.30;;;22.67;;
18172;SDS011;9211;48.818;9.312;2022-12-18T11:55:23;53.58;;;21.77;;
18172;SDS011;9211;48.818;9.312;2022-12-18T11:58:03;55.20;;;22.67;;
18172;SDS011;9211;48.818;9.312;2022-12-18T12:00:37;60.40;;;23.98;;
18172;SDS011;9211;48.818;9.312;2022-12-18T12:03:20;51.13;;;21.20;;
18172;SDS011;9211;48.818;9.312;2022-12-18T12:05:59;54.15;;;21.65;;
18172;SDS011;9211;48.818;9.312;2022-12-18T12:08:40;54.47;;;22.63;;
18172;SDS011;9211;48.818;9.312;2022-12-18T12:11:19;55.22;;;22.55;;
18172;SDS011;9211;48.818;9.312;2022-12-18T12:13:59;55.00;;;22.13;;
18172;SDS011;9211;48.818;9.312;2022-12-18T12:16:37;52.55;;;21.73;;
18172;SDS011;9211;48.818;9.312;2022-12-18T12:19:17;56.33;;;22.40;;
18172;SDS011;9211;48.818;9.312;2022-12-18T12:21:54;53.80;;;21.13;;
18172;SDS011;9211;48.818;9.312;2022-12-18T12:24:32;53.70;;;22.08;;
18172;SDS011;9211;48.818;9.312;2022-12-18T12:27:10;52.47;;;20.65;;
18172;SDS011;9211;48.818;9.312;2022-12-18T12:29:47;55.60;;;22.17;;
18172;SDS011;9211;48.818;9.312;2022-12-18T12:32:29;52.03;;;21.70;;
18172;SDS011;9211;48.818;9.312;2022-12-18T12:35:08;50.73;;;21.27;;
18172;SDS011;9211;48.818;9.312;2022-12-18T12:37:43;53.30;;;21.85;;
18172;SDS011;9211;48.818;9.312;2022-12-18T12:40:16;53.13;;;21.13;;
18172;SDS011;9211;48.818;9.312;2022-12-18T12:42:47;46.35;;;20.20;;
18172;SDS011;9211;48.818;9.312;2022-12-18T12:45:39;52.03;;;21.20;;
18172;SDS011;9211;48.818;9.312;2022-12-18T12:48:13;49.88;;;21.35;;
18172;SDS011;9211;48.818;9.312;2022-12-18T12:50:45;49.33;;;20.92;;
18172;SDS011;9211;48.818;9.312;2022-12-18T12:53:16;52.13;;;21.58;;
18172;SDS011;9211;48.818;9.312;2022-12-18T12:55:49;54.35;;;21.27;;
18172;SDS011;9211;48.818;9.312;2022-12-18T12:58:23;51.33;;;21.08;;
18172;SDS011;9211;48.818;9.312;2022-12-18T13:01:01;52.05;;;21.85;;
18172;SDS011;9211;48.818;9.312;2022-12-18T13:03:40;48.90;;;20.75;;
18172;SDS011;9211;48.818;9.312;2022-12-18T13:06:14;48.80;;;20.23;;
18172;SDS011;9211;48.818;9.312;2022-12-18T13:08:54;49.60;;;19.95;;
18172;SDS011;9211;48.818;9.312;2022-12-18T13:11:28;47.87;;;20.57;;
18172;SDS011;9211;48.818;9.312;2022-12-18T13:14:23;46.33;;;19.93;;
18172;SDS011;9211;48.818;9.312;2022-12-18T13:20:04;49.77;;;21.13;;
18172;SDS011;9211;48.818;9.312;2022-12-18T13:22:39;47.88;;;20.35;;
18172;SDS011;9211;48.818;9.312;2022-12-18T13:25:29;51.00;;;21.83;;
18172;SDS011;9211;48.818;9.312;2022-12-18T13:28:08;52.33;;;21.98;;
18172;SDS011;9211;48.818;9.312;2022-12-18T13:30:48;46.63;;;20.85;;
18172;SDS011;9211;48.818;9.312;2022-12-18T13:39:09;52.07;;;20.97;;
18172;SDS011;9211;48.818;9.312;2022-12-18T13:41:52;48.05;;;21.38;;
18172;SDS011;9211;48.818;9.312;2022-12-18T13:45:00;51.08;;;20.98;;
18172;SDS011;9211;48.818;9.312;2022-12-18T13:47:31;52.67;;;21.35;;
18172;SDS011;9211;48.818;9.312;2022-12-18T13:49:59;49.80;;;20.90;;
18172;SDS011;9211;48.818;9.312;2022-12-18T13:52:28;47.33;;;20.65;;
18172;SDS011;9211;48.818;9.312;2022-12-18T13:55:01;52.40;;;21.63;;
18172;SDS011;9211;48.818;9.312;2022-12-18T13:57:34;50.53;;;21.93;;
18172;SDS011;9211;48.818;9.312;2022-12-18T14:00:16;47.35;;;20.60;;
18172;SDS011;9211;48.818;9.312;2022-12-18T14:02:51;56.03;;;22.55;;
18172;SDS011;9211;48.818;9.312;2022-12-18T14:05:21;51.00;;;21.42;;
18172;SDS011;9211;48.818;9.312;2022-12-18T14:07:48;49.28;;;21.05;;
18172;SDS011;9211;48.818;9.312;2022-12-18T14:10:16;50.08;;;20.80;;
18172;SDS011;9211;48.818;9.312;2022-12-18T14:12:45;54.42;;;21.70;;
18172;SDS011;9211;48.818;9.312;2022-12-18T14:15:25;48.90;;;21.63;;
18172;SDS011;9211;48.818;9.312;2022-12-18T14:18:00;54.05;;;21.77;;
18172;SDS011;9211;48.818;9.312;2022-12-18T14:20:29;48.90;;;22.17;;
18172;SDS011;9211;48.818;9.312;2022-12-18T14:22:58;51.80;;;21.85;;
18172;SDS011;9211;48.818;9.312;2022-12-18T14:25:26;50.53;;;20.92;;
18172;SDS011;9211;48.818;9.312;2022-12-18T14:28:02;51.25;;;21.85;;
18172;SDS011;9211;48.818;9.312;2022-12-18T14:30:38;50.42;;;21.88;;
18172;SDS011;9211;48.818;9.312;2022-12-18T14:33:10;50.77;;;21.37;;
18172;SDS011;9211;48.818;9.312;2022-12-18T14:35:40;49.13;;;21.45;;
18172;SDS011;9211;48.818;9.312;2022-12-18T14:38:17;52.23;;;22.53;;
18172;SDS011;9211;48.818;9.312;2022-12-18T14:40:51;55.25;;;22.02;;
18172;SDS011;9211;48.818;9.312;2022-12-18T14:43:20;51.53;;;22.20;;
18172;SDS011;9211;48.818;9.312;2022-12-18T14:45:47;57.75;;;24.23;;
18172;SDS011;9211;48.818;9.312;2022-12-18T14:48:17;58.17;;;24.67;;
18172;SDS011;9211;48.818;9.312;2022-12-18T14:50:45;56.97;;;24.13;;
18172;SDS011;9211;48.818;9.312;2022-12-18T14:53:22;51.78;;;22.42;;
18172;SDS011;9211;48.818;9.312;2022-12-18T14:55:53;52.25;;;22.75;;
18172;SDS011;9211;48.818;9.312;2022-12-18T14:58:20;53.08;;;22.88;;
18172;SDS011;9211;48.818;9.312;2022-12-18T15:00:48;54.87;;;23.57;;
18172;SDS011;9211;48.818;9.312;2022-12-18T15:03:18;53.90;;;23.05;;
18172;SDS011;9211;48.818;9.312;2022-12-18T15:05:47;54.35;;;22.98;;
18172;SDS011;9211;48.818;9.312;2022-12-18T15:08:24;56.05;;;23.65;;
18172;SDS011;9211;48.818;9.312;2022-12-18T15:10:55;54.78;;;23.50;;
18172;SDS011;9211;48.818;9.312;2022-12-18T15:13:23;54.70;;;24.05;;
18172;SDS011;9211;48.818;9.312;2022-12-18T15:15:51;58.33;;;23.38;;